sensor_id;sensor_type;location;lat;lon;timestamp;P1;durP1;ratioP1;P2;durP2;ratioP2
62796;SDS011;48839;48.546;-4.178;2023-07-08T00:02:18;4.72;;;3.63;;
62796;SDS011;48839;48.546;-4.178;2023-07-08T00:04:44;7.82;;;3.03;;
62796;SDS011;48839;48.546;-4.178;2023-07-08T00:07:11;5.57;;;3.08;;
62796;SDS011;48839;48.546;-4.178;2023-07-08T00:09:38;7.32;;;3.15;;
62796;SDS011;48839;48.546;-4.178;2023-07-08T00:12:08;7.68;;;3.65;;
62796;SDS011;48839;48.546;-4.178;2023-07-08T00:14:34;6.47;;;3.13;;
62796;SDS011;48839;48.546;-4.178;2023-07-08T00:17:00;7.38;;;3.45;;
62796;SDS011;48839;48.546;-4.178;2023-07-08T00:19:26;5.22;;;3.30;;
62796;SDS011;48839;48.546;-4.178;2023-07-08T00:21:52;7.63;;;3.42;;
62796;SDS011;48839;48.546;-4.178;2023-07-08T00:24:18;5.78;;;3.15;;
62796;SDS011;48839;48.546;-4.178;2023-07-08T00:26:44;5.00;;;3.28;;
62796;SDS011;48839;48.546;-4.178;2023-07-08T00:29:11;6.78;;;3.13;;
62796;SDS011;48839;48.546;-4.178;2023-07-08T00:31:37;5.03;;;3.08;;
62796;SDS011;48839;48.546;-4.178;2023-07-08T00:34:03;6.13;;;3.40;;
62796;SDS011;48839;48.546;-4.178;2023-07-08T00:36:29;9.25;;;3.65;;
62796;SDS011;48839;48.546;-4.178;2023-07-08T00:38:56;4.57;;;2.83;;
62796;SDS011;48839;48.546;-4.178;2023-07-08T00:41:24;4.90;;;2.95;;
62796;SDS011;48839;48.546;-4.178;2023-07-08T00:43:52;5.25;;;2.90;;
62796;SDS011;48839;48.546;-4.178;2023-07-08T00:48:46;5.38;;;3.30;;
62796;SDS011;48839;48.546;-4.178;2023-07-08T00:51:12;4.15;;;2.83;;
62796;SDS011;48839;48.546;-4.178;2023-07-08T00:53:39;7.07;;;3.35;;
62796;SDS011;48839;48.546;-4.178;2023-07-08T00:58:42;4.82;;;2.90;;
62796;SDS011;48839;48.546;-4.178;2023-07-08T01:01:09;5.53;;;2.70;;
62796;SDS011;48839;48.546;-4.178;2023-07-08T01:03:37;5.53;;;2.40;;
62796;SDS011;48839;48.546;-4.178;2023-07-08T01:06:04;7.57;;;3.15;;
62796;SDS011;48839;48.546;-4.178;2023-07-08T01:08:31;5.63;;;3.47;;
62796;SDS011;48839;48.546;-4.178;2023-07-08T01:11:01;8.10;;;2.78;;
62796;SDS011;48839;48.546;-4.178;2023-07-08T01:13:32;3.42;;;2.47;;
62796;SDS011;48839;48.546;-4.178;2023-07-08T01:16:00;5.43;;;2.95;;
62796;SDS011;48839;48.546;-4.178;2023-07-08T01:18:26;3.90;;;2.83;;
62796;SDS011;48839;48.546;-4.178;2023-07-08T01:20:52;5.53;;;2.90;;
62796;SDS011;48839;48.546;-4.178;2023-07-08T01:23:20;5.10;;;2.70;;
62796;SDS011;48839;48.546;-4.178;2023-07-08T01:25:46;7.05;;;3.05;;
62796;SDS011;48839;48.546;-4.178;2023-07-08T01:28:13;3.85;;;2.40;;
62796;SDS011;48839;48.546;-4.178;2023-07-08T01:30:40;4.55;;;2.60;;
62796;SDS011;48839;48.546;-4.178;2023-07-08T01:33:12;5.30;;;2.97;;
62796;SDS011;48839;48.546;-4.178;2023-07-08T01:35:41;4.30;;;2.53;;
62796;SDS011;48839;48.546;-4.178;2023-07-08T01:38:07;8.07;;;3.33;;
62796;SDS011;48839;48.546;-4.178;2023-07-08T01:40:35;6.97;;;2.75;;
62796;SDS011;48839;48.546;-4.178;2023-07-08T01:43:02;6.28;;;2.85;;
62796;SDS011;48839;48.546;-4.178;2023-07-08T01:45:33;6.20;;;2.58;;
62796;SDS011;48839;48.546;-4.178;2023-07-08T01:48:02;8.23;;;2.80;;
62796;SDS011;48839;48.546;-4.178;2023-07-08T01:50:29;4.78;;;2.70;;
62796;SDS011;48839;48.546;-4.178;2023-07-08T01:52:57;5.22;;;2.50;;
62796;SDS011;48839;48.546;-4.178;2023-07-08T01:55:24;3.67;;;2.47;;
62796;SDS011;48839;48.546;-4.178;2023-07-08T01:57:51;3.40;;;2.28;;
62796;SDS011;48839;48.546;-4.178;2023-07-08T02:00:18;8.15;;;2.75;;
62796;SDS011;48839;48.546;-4.178;2023-07-08T02:02:44;3.13;;;2.42;;
62796;SDS011;48839;48.546;-4.178;2023-07-08T02:05:10;7.05;;;2.33;;
62796;SDS011;48839;48.546;-4.178;2023-07-08T02:07:36;3.53;;;2.50;;
62796;SDS011;48839;48.546;-4.178;2023-07-08T02:10:02;3.95;;;2.50;;
62796;SDS011;48839;48.546;-4.178;2023-07-08T02:12:28;3.47;;;2.00;;
62796;SDS011;48839;48.546;-4.178;2023-07-08T02:14:54;6.25;;;2.25;;
62796;SDS011;48839;48.546;-4.178;2023-07-08T02:17:20;5.03;;;2.40;;
62796;SDS011;48839;48.546;-4.178;2023-07-08T02:19:46;4.20;;;2.20;;
62796;SDS011;48839;48.546;-4.178;2023-07-08T02:22:12;3.30;;;1.80;;
62796;SDS011;48839;48.546;-4.178;2023-07-08T02:24:38;4.43;;;2.22;;
62796;SDS011;48839;48.546;-4.178;2023-07-08T02:27:04;6.15;;;2.20;;
62796;SDS011;48839;48.546;-4.178;2023-07-08T02:29:30;5.78;;;2.80;;
62796;SDS011;48839;48.546;-4.178;2023-07-08T02:31:57;5.57;;;2.38;;
62796;SDS011;48839;48.546;-4.178;2023-07-08T02:34:23;5.07;;;2.05;;
62796;SDS011;48839;48.546;-4.178;2023-07-08T02:36:49;2.88;;;2.05;;
62796;SDS011;48839;48.546;-4.178;2023-07-08T02:39:15;3.53;;;2.08;;
62796;SDS011;48839;48.546;-4.178;2023-07-08T02:41:41;5.68;;;2.45;;
62796;SDS011;48839;48.546;-4.178;2023-07-08T02:44:07;10.00;;;2.55;;
62796;SDS011;48839;48.546;-4.178;2023-07-08T02:46:33;5.05;;;1.77;;
62796;SDS011;48839;48.546;-4.178;2023-07-08T02:48:59;6.13;;;2.22;;
62796;SDS011;48839;48.546;-4.178;2023-07-08T02:51:25;3.03;;;2.03;;
62796;SDS011;48839;48.546;-4.178;2023-07-08T02:53:51;6.15;;;2.30;;
62796;SDS011;48839;48.546;-4.178;2023-07-08T02:56:17;4.78;;;2.60;;
62796;SDS011;48839;48.546;-4.178;2023-07-08T02:58:43;2.88;;;1.92;;
62796;SDS011;48839;48.546;-4.178;2023-07-08T03:01:09;3.75;;;2.03;;
62796;SDS011;48839;48.546;-4.178;2023-07-08T03:03:35;5.28;;;2.42;;
62796;SDS011;48839;48.546;-4.178;2023-07-08T03:06:02;6.78;;;2.10;;
62796;SDS011;48839;48.546;-4.178;2023-07-08T03:08:28;3.90;;;1.92;;
62796;SDS011;48839;48.546;-4.178;2023-07-08T03:10:58;5.45;;;2.47;;
62796;SDS011;48839;48.546;-4.178;2023-07-08T03:13:25;7.75;;;2.25;;
62796;SDS011;48839;48.546;-4.178;2023-07-08T03:15:51;4.88;;;2.05;;
62796;SDS011;48839;48.546;-4.178;2023-07-08T03:18:17;6.43;;;2.20;;
62796;SDS011;48839;48.546;-4.178;2023-07-08T03:20:47;8.75;;;2.55;;
62796;SDS011;48839;48.546;-4.178;2023-07-08T03:23:13;6.47;;;2.95;;
62796;SDS011;48839;48.546;-4.178;2023-07-08T03:25:39;4.22;;;2.10;;
62796;SDS011;48839;48.546;-4.178;2023-07-08T03:28:05;3.13;;;2.05;;
62796;SDS011;48839;48.546;-4.178;2023-07-08T03:30:32;4.05;;;2.22;;
62796;SDS011;48839;48.546;-4.178;2023-07-08T03:32:58;6.20;;;2.05;;
62796;SDS011;48839;48.546;-4.178;2023-07-08T03:35:25;7.60;;;2.40;;
62796;SDS011;48839;48.546;-4.178;2023-07-08T03:37:51;4.28;;;2.50;;
62796;SDS011;48839;48.546;-4.178;2023-07-08T03:40:17;8.52;;;2.55;;
62796;SDS011;48839;48.546;-4.178;2023-07-08T03:42:43;4.05;;;2.60;;
62796;SDS011;48839;48.546;-4.178;2023-07-08T03:45:09;5.72;;;2.25;;
62796;SDS011;48839;48.546;-4.178;2023-07-08T03:47:36;2.80;;;2.00;;
62796;SDS011;48839;48.546;-4.178;2023-07-08T03:50:02;5.13;;;2.20;;
62796;SDS011;48839;48.546;-4.178;2023-07-08T03:52:28;5.40;;;2.25;;
62796;SDS011;48839;48.546;-4.178;2023-07-08T03:54:54;8.23;;;2.45;;
62796;SDS011;48839;48.546;-4.178;2023-07-08T03:57:21;3.58;;;2.10;;
62796;SDS011;48839;48.546;-4.178;2023-07-08T03:59:47;5.32;;;2.22;;
62796;SDS011;48839;48.546;-4.178;2023-07-08T04:02:13;3.38;;;2.15;;
62796;SDS011;48839;48.546;-4.178;2023-07-08T04:04:39;5.57;;;2.17;;
62796;SDS011;48839;48.546;-4.178;2023-07-08T04:07:05;5.50;;;2.92;;
62796;SDS011;48839;48.546;-4.178;2023-07-08T04:09:31;6.68;;;2.53;;
62796;SDS011;48839;48.546;-4.178;2023-07-08T04:11:58;6.18;;;2.20;;
62796;SDS011;48839;48.546;-4.178;2023-07-08T04:14:24;7.60;;;2.28;;
62796;SDS011;48839;48.546;-4.178;2023-07-08T04:16:52;7.40;;;2.60;;
62796;SDS011;48839;48.546;-4.178;2023-07-08T04:19:19;3.38;;;2.20;;
62796;SDS011;48839;48.546;-4.178;2023-07-08T04:21:47;7.30;;;2.60;;
62796;SDS011;48839;48.546;-4.178;2023-07-08T04:24:14;4.82;;;2.13;;
62796;SDS011;48839;48.546;-4.178;2023-07-08T04:26:40;4.32;;;2.13;;
62796;SDS011;48839;48.546;-4.178;2023-07-08T04:29:09;3.30;;;2.10;;
62796;SDS011;48839;48.546;-4.178;2023-07-08T04:31:36;5.57;;;2.55;;
62796;SDS011;48839;48.546;-4.178;2023-07-08T04:34:02;7.60;;;2.30;;
62796;SDS011;48839;48.546;-4.178;2023-07-08T04:36:28;5.13;;;2.75;;
62796;SDS011;48839;48.546;-4.178;2023-07-08T04:38:54;5.68;;;2.17;;
62796;SDS011;48839;48.546;-4.178;2023-07-08T04:41:23;9.10;;;3.10;;
62796;SDS011;48839;48.546;-4.178;2023-07-08T04:43:50;6.60;;;2.83;;
62796;SDS011;48839;48.546;-4.178;2023-07-08T04:46:25;5.00;;;2.28;;
62796;SDS011;48839;48.546;-4.178;2023-07-08T04:48:52;6.38;;;2.38;;
62796;SDS011;48839;48.546;-4.178;2023-07-08T04:51:18;5.07;;;2.45;;
62796;SDS011;48839;48.546;-4.178;2023-07-08T04:53:44;5.13;;;2.17;;
62796;SDS011;48839;48.546;-4.178;2023-07-08T04:56:10;8.85;;;2.20;;
62796;SDS011;48839;48.546;-4.178;2023-07-08T04:58:36;6.43;;;2.83;;
62796;SDS011;48839;48.546;-4.178;2023-07-08T05:01:02;7.43;;;2.58;;
62796;SDS011;48839;48.546;-4.178;2023-07-08T05:03:28;6.40;;;2.55;;
62796;SDS011;48839;48.546;-4.178;2023-07-08T05:05:54;4.63;;;2.22;;
62796;SDS011;48839;48.546;-4.178;2023-07-08T05:08:20;6.50;;;2.10;;
62796;SDS011;48839;48.546;-4.178;2023-07-08T05:10:46;4.55;;;1.98;;
62796;SDS011;48839;48.546;-4.178;2023-07-08T05:13:12;4.53;;;2.38;;
62796;SDS011;48839;48.546;-4.178;2023-07-08T05:15:38;4.45;;;2.47;;
62796;SDS011;48839;48.546;-4.178;2023-07-08T05:18:04;8.05;;;2.28;;
62796;SDS011;48839;48.546;-4.178;2023-07-08T05:20:30;4.43;;;2.40;;
62796;SDS011;48839;48.546;-4.178;2023-07-08T05:22:59;7.97;;;2.25;;
62796;SDS011;48839;48.546;-4.178;2023-07-08T05:25:25;3.75;;;2.20;;
62796;SDS011;48839;48.546;-4.178;2023-07-08T05:27:52;5.05;;;2.47;;
62796;SDS011;48839;48.546;-4.178;2023-07-08T05:30:18;5.60;;;2.30;;
62796;SDS011;48839;48.546;-4.178;2023-07-08T05:32:44;4.93;;;2.00;;
62796;SDS011;48839;48.546;-4.178;2023-07-08T05:35:10;3.80;;;2.22;;
62796;SDS011;48839;48.546;-4.178;2023-07-08T05:37:37;5.93;;;2.20;;
62796;SDS011;48839;48.546;-4.178;2023-07-08T05:40:05;4.72;;;2.22;;
62796;SDS011;48839;48.546;-4.178;2023-07-08T05:42:32;5.18;;;2.30;;
62796;SDS011;48839;48.546;-4.178;2023-07-08T05:44:58;6.95;;;2.25;;
62796;SDS011;48839;48.546;-4.178;2023-07-08T05:47:24;3.42;;;1.90;;
62796;SDS011;48839;48.546;-4.178;2023-07-08T05:49:50;3.78;;;2.00;;
62796;SDS011;48839;48.546;-4.178;2023-07-08T05:52:16;8.80;;;2.30;;
62796;SDS011;48839;48.546;-4.178;2023-07-08T05:54:42;7.75;;;2.30;;
62796;SDS011;48839;48.546;-4.178;2023-07-08T05:57:09;5.07;;;2.03;;
62796;SDS011;48839;48.546;-4.178;2023-07-08T05:59:35;6.43;;;2.97;;
62796;SDS011;48839;48.546;-4.178;2023-07-08T06:02:03;3.78;;;1.98;;
62796;SDS011;48839;48.546;-4.178;2023-07-08T06:04:29;6.30;;;2.42;;
62796;SDS011;48839;48.546;-4.178;2023-07-08T06:06:56;5.55;;;2.35;;
62796;SDS011;48839;48.546;-4.178;2023-07-08T06:09:22;7.10;;;2.20;;
62796;SDS011;48839;48.546;-4.178;2023-07-08T06:11:48;4.75;;;2.25;;
62796;SDS011;48839;48.546;-4.178;2023-07-08T06:14:14;3.75;;;1.90;;
62796;SDS011;48839;48.546;-4.178;2023-07-08T06:16:40;4.50;;;2.00;;
62796;SDS011;48839;48.546;-4.178;2023-07-08T06:19:06;5.65;;;2.15;;
62796;SDS011;48839;48.546;-4.178;2023-07-08T06:21:32;6.25;;;2.20;;
62796;SDS011;48839;48.546;-4.178;2023-07-08T06:23:58;5.82;;;2.20;;
62796;SDS011;48839;48.546;-4.178;2023-07-08T06:26:24;7.22;;;2.10;;
62796;SDS011;48839;48.546;-4.178;2023-07-08T06:28:50;3.95;;;1.92;;
62796;SDS011;48839;48.546;-4.178;2023-07-08T06:31:16;4.80;;;2.20;;
62796;SDS011;48839;48.546;-4.178;2023-07-08T06:33:42;8.18;;;2.33;;
62796;SDS011;48839;48.546;-4.178;2023-07-08T06:36:08;8.85;;;3.08;;
62796;SDS011;48839;48.546;-4.178;2023-07-08T06:38:34;7.47;;;2.30;;
62796;SDS011;48839;48.546;-4.178;2023-07-08T06:41:00;5.95;;;1.90;;
62796;SDS011;48839;48.546;-4.178;2023-07-08T06:43:26;6.85;;;2.22;;
62796;SDS011;48839;48.546;-4.178;2023-07-08T06:45:52;4.43;;;2.47;;
62796;SDS011;48839;48.546;-4.178;2023-07-08T06:48:18;8.60;;;3.08;;
62796;SDS011;48839;48.546;-4.178;2023-07-08T06:50:47;6.03;;;2.10;;
62796;SDS011;48839;48.546;-4.178;2023-07-08T06:53:14;4.22;;;1.90;;
62796;SDS011;48839;48.546;-4.178;2023-07-08T06:55:40;4.97;;;1.67;;
62796;SDS011;48839;48.546;-4.178;2023-07-08T06:58:06;2.75;;;1.70;;
62796;SDS011;48839;48.546;-4.178;2023-07-08T07:00:32;5.03;;;2.00;;
62796;SDS011;48839;48.546;-4.178;2023-07-08T07:02:58;5.90;;;2.10;;
62796;SDS011;48839;48.546;-4.178;2023-07-08T07:05:24;3.85;;;2.13;;
62796;SDS011;48839;48.546;-4.178;2023-07-08T07:07:50;5.55;;;1.58;;
62796;SDS011;48839;48.546;-4.178;2023-07-08T07:10:17;8.65;;;2.47;;
62796;SDS011;48839;48.546;-4.178;2023-07-08T07:12:43;6.65;;;1.77;;
62796;SDS011;48839;48.546;-4.178;2023-07-08T07:15:10;3.10;;;1.67;;
62796;SDS011;48839;48.546;-4.178;2023-07-08T07:17:36;6.65;;;1.88;;
62796;SDS011;48839;48.546;-4.178;2023-07-08T07:20:02;4.50;;;1.88;;
62796;SDS011;48839;48.546;-4.178;2023-07-08T07:22:28;5.75;;;1.92;;
62796;SDS011;48839;48.546;-4.178;2023-07-08T07:24:54;3.78;;;1.80;;
62796;SDS011;48839;48.546;-4.178;2023-07-08T07:27:20;4.90;;;2.15;;
62796;SDS011;48839;48.546;-4.178;2023-07-08T07:29:49;5.72;;;2.03;;
62796;SDS011;48839;48.546;-4.178;2023-07-08T07:32:17;7.13;;;2.03;;
62796;SDS011;48839;48.546;-4.178;2023-07-08T07:34:46;9.82;;;1.50;;
62796;SDS011;48839;48.546;-4.178;2023-07-08T07:37:13;5.40;;;1.95;;
62796;SDS011;48839;48.546;-4.178;2023-07-08T07:39:40;6.85;;;1.95;;
62796;SDS011;48839;48.546;-4.178;2023-07-08T07:42:06;6.43;;;2.50;;
62796;SDS011;48839;48.546;-4.178;2023-07-08T07:44:32;5.97;;;1.50;;
62796;SDS011;48839;48.546;-4.178;2023-07-08T07:46:58;8.20;;;2.55;;
62796;SDS011;48839;48.546;-4.178;2023-07-08T07:49:24;5.65;;;1.60;;
62796;SDS011;48839;48.546;-4.178;2023-07-08T07:51:50;6.93;;;2.10;;
62796;SDS011;48839;48.546;-4.178;2023-07-08T07:54:16;7.75;;;1.77;;
62796;SDS011;48839;48.546;-4.178;2023-07-08T07:56:42;6.45;;;1.70;;
62796;SDS011;48839;48.546;-4.178;2023-07-08T07:59:09;8.77;;;2.10;;
62796;SDS011;48839;48.546;-4.178;2023-07-08T08:01:35;10.18;;;2.42;;
62796;SDS011;48839;48.546;-4.178;2023-07-08T08:04:01;7.13;;;2.20;;
62796;SDS011;48839;48.546;-4.178;2023-07-08T08:06:27;9.32;;;1.85;;
62796;SDS011;48839;48.546;-4.178;2023-07-08T08:08:53;15.02;;;2.80;;
62796;SDS011;48839;48.546;-4.178;2023-07-08T08:11:19;10.98;;;2.70;;
62796;SDS011;48839;48.546;-4.178;2023-07-08T08:13:46;8.50;;;2.40;;
62796;SDS011;48839;48.546;-4.178;2023-07-08T08:16:12;8.15;;;2.65;;
62796;SDS011;48839;48.546;-4.178;2023-07-08T08:18:38;16.13;;;2.60;;
62796;SDS011;48839;48.546;-4.178;2023-07-08T08:21:04;10.68;;;2.78;;
62796;SDS011;48839;48.546;-4.178;2023-07-08T08:23:30;4.40;;;1.50;;
62796;SDS011;48839;48.546;-4.178;2023-07-08T08:25:56;4.20;;;1.23;;
62796;SDS011;48839;48.546;-4.178;2023-07-08T08:28:22;7.25;;;1.60;;
62796;SDS011;48839;48.546;-4.178;2023-07-08T08:30:49;8.60;;;2.05;;
62796;SDS011;48839;48.546;-4.178;2023-07-08T08:33:15;9.23;;;1.75;;
62796;SDS011;48839;48.546;-4.178;2023-07-08T08:35:42;7.25;;;1.77;;
62796;SDS011;48839;48.546;-4.178;2023-07-08T08:38:08;5.57;;;1.73;;
62796;SDS011;48839;48.546;-4.178;2023-07-08T08:40:34;5.72;;;1.55;;
62796;SDS011;48839;48.546;-4.178;2023-07-08T08:43:02;7.82;;;1.80;;
62796;SDS011;48839;48.546;-4.178;2023-07-08T08:45:29;8.85;;;2.00;;
62796;SDS011;48839;48.546;-4.178;2023-07-08T08:48:02;4.20;;;1.40;;
62796;SDS011;48839;48.546;-4.178;2023-07-08T08:53:02;6.93;;;1.65;;
62796;SDS011;48839;48.546;-4.178;2023-07-08T08:55:29;9.75;;;2.15;;
62796;SDS011;48839;48.546;-4.178;2023-07-08T09:03:13;12.75;;;2.15;;
62796;SDS011;48839;48.546;-4.178;2023-07-08T09:05:41;8.32;;;2.03;;
62796;SDS011;48839;48.546;-4.178;2023-07-08T09:10:46;7.05;;;2.20;;
62796;SDS011;48839;48.546;-4.178;2023-07-08T09:13:18;8.18;;;1.85;;
62796;SDS011;48839;48.546;-4.178;2023-07-08T09:15:47;8.95;;;2.78;;
62796;SDS011;48839;48.546;-4.178;2023-07-08T09:18:20;6.32;;;1.40;;
62796;SDS011;48839;48.546;-4.178;2023-07-08T09:20:50;10.65;;;1.65;;
62796;SDS011;48839;48.546;-4.178;2023-07-08T09:23:19;10.57;;;2.22;;
62796;SDS011;48839;48.546;-4.178;2023-07-08T09:25:49;6.93;;;1.48;;
62796;SDS011;48839;48.546;-4.178;2023-07-08T09:28:16;6.47;;;1.45;;
62796;SDS011;48839;48.546;-4.178;2023-07-08T09:30:45;3.65;;;1.13;;
62796;SDS011;48839;48.546;-4.178;2023-07-08T09:33:12;8.10;;;1.40;;
62796;SDS011;48839;48.546;-4.178;2023-07-08T09:35:39;5.65;;;1.30;;
62796;SDS011;48839;48.546;-4.178;2023-07-08T09:38:06;9.48;;;1.40;;
62796;SDS011;48839;48.546;-4.178;2023-07-08T09:40:33;6.05;;;1.20;;
62796;SDS011;48839;48.546;-4.178;2023-07-08T09:45:42;5.15;;;1.30;;
62796;SDS011;48839;48.546;-4.178;2023-07-08T09:48:14;8.35;;;1.50;;
62796;SDS011;48839;48.546;-4.178;2023-07-08T09:50:42;4.30;;;1.50;;
62796;SDS011;48839;48.546;-4.178;2023-07-08T09:53:11;8.90;;;1.55;;
62796;SDS011;48839;48.546;-4.178;2023-07-08T09:55:38;6.75;;;1.00;;
62796;SDS011;48839;48.546;-4.178;2023-07-08T09:58:04;7.93;;;1.42;;
62796;SDS011;48839;48.546;-4.178;2023-07-08T10:00:41;3.38;;;1.15;;
62796;SDS011;48839;48.546;-4.178;2023-07-08T10:03:20;5.35;;;1.33;;
62796;SDS011;48839;48.546;-4.178;2023-07-08T10:05:48;7.75;;;1.50;;
62796;SDS011;48839;48.546;-4.178;2023-07-08T10:10:40;7.95;;;1.60;;
62796;SDS011;48839;48.546;-4.178;2023-07-08T10:15:46;4.65;;;1.17;;
62796;SDS011;48839;48.546;-4.178;2023-07-08T10:18:14;12.00;;;1.80;;
62796;SDS011;48839;48.546;-4.178;2023-07-08T10:28:26;6.88;;;1.85;;
62796;SDS011;48839;48.546;-4.178;2023-07-08T10:31:01;8.63;;;2.40;;
62796;SDS011;48839;48.546;-4.178;2023-07-08T10:33:47;9.82;;;1.60;;
62796;SDS011;48839;48.546;-4.178;2023-07-08T10:36:23;7.28;;;1.67;;
62796;SDS011;48839;48.546;-4.178;2023-07-08T10:39:02;6.95;;;1.40;;
62796;SDS011;48839;48.546;-4.178;2023-07-08T10:44:01;8.32;;;1.38;;
62796;SDS011;48839;48.546;-4.178;2023-07-08T10:56:44;3.92;;;1.20;;
62796;SDS011;48839;48.546;-4.178;2023-07-08T10:59:25;4.72;;;1.05;;
62796;SDS011;48839;48.546;-4.178;2023-07-08T11:10:12;6.32;;;1.17;;
62796;SDS011;48839;48.546;-4.178;2023-07-08T11:12:47;5.22;;;1.17;;
62796;SDS011;48839;48.546;-4.178;2023-07-08T11:15:18;4.30;;;1.20;;
62796;SDS011;48839;48.546;-4.178;2023-07-08T11:20:59;4.10;;;0.90;;
62796;SDS011;48839;48.546;-4.178;2023-07-08T11:23:49;5.22;;;1.13;;
62796;SDS011;48839;48.546;-4.178;2023-07-08T11:26:00;5.05;;;1.58;;
62796;SDS011;48839;48.546;-4.178;2023-07-08T11:28:29;5.03;;;1.10;;
62796;SDS011;48839;48.546;-4.178;2023-07-08T11:30:55;4.82;;;1.20;;
62796;SDS011;48839;48.546;-4.178;2023-07-08T11:33:24;4.10;;;0.90;;
62796;SDS011;48839;48.546;-4.178;2023-07-08T11:35:51;5.97;;;0.80;;
62796;SDS011;48839;48.546;-4.178;2023-07-08T11:38:20;7.80;;;1.70;;
62796;SDS011;48839;48.546;-4.178;2023-07-08T11:43:37;5.13;;;0.98;;
62796;SDS011;48839;48.546;-4.178;2023-07-08T11:46:06;5.13;;;1.15;;
62796;SDS011;48839;48.546;-4.178;2023-07-08T11:48:38;3.15;;;1.30;;
62796;SDS011;48839;48.546;-4.178;2023-07-08T11:51:05;6.63;;;1.08;;
62796;SDS011;48839;48.546;-4.178;2023-07-08T11:53:34;4.03;;;0.90;;
62796;SDS011;48839;48.546;-4.178;2023-07-08T11:58:28;5.05;;;1.02;;
62796;SDS011;48839;48.546;-4.178;2023-07-08T12:00:58;2.78;;;1.00;;
62796;SDS011;48839;48.546;-4.178;2023-07-08T12:05:57;3.22;;;0.82;;
62796;SDS011;48839;48.546;-4.178;2023-07-08T12:08:33;5.38;;;0.88;;
62796;SDS011;48839;48.546;-4.178;2023-07-08T12:11:01;4.65;;;1.13;;
62796;SDS011;48839;48.546;-4.178;2023-07-08T12:13:27;7.57;;;1.60;;
62796;SDS011;48839;48.546;-4.178;2023-07-08T12:15:53;5.30;;;0.70;;
62796;SDS011;48839;48.546;-4.178;2023-07-08T12:18:20;6.93;;;2.42;;
62796;SDS011;48839;48.546;-4.178;2023-07-08T12:20:52;8.32;;;1.30;;
62796;SDS011;48839;48.546;-4.178;2023-07-08T12:23:19;6.32;;;1.42;;
62796;SDS011;48839;48.546;-4.178;2023-07-08T12:25:46;5.32;;;1.25;;
62796;SDS011;48839;48.546;-4.178;2023-07-08T12:28:12;2.78;;;0.93;;
62796;SDS011;48839;48.546;-4.178;2023-07-08T12:30:39;7.38;;;1.10;;
62796;SDS011;48839;48.546;-4.178;2023-07-08T12:33:08;5.57;;;1.10;;
62796;SDS011;48839;48.546;-4.178;2023-07-08T12:35:35;5.13;;;1.17;;
62796;SDS011;48839;48.546;-4.178;2023-07-08T12:38:02;6.80;;;1.20;;
62796;SDS011;48839;48.546;-4.178;2023-07-08T12:40:29;6.90;;;1.45;;
62796;SDS011;48839;48.546;-4.178;2023-07-08T12:42:56;4.38;;;0.82;;
62796;SDS011;48839;48.546;-4.178;2023-07-08T12:45:24;5.82;;;1.20;;
62796;SDS011;48839;48.546;-4.178;2023-07-08T12:47:51;7.25;;;1.80;;
62796;SDS011;48839;48.546;-4.178;2023-07-08T12:50:17;6.60;;;1.13;;
62796;SDS011;48839;48.546;-4.178;2023-07-08T12:52:44;4.85;;;1.20;;
62796;SDS011;48839;48.546;-4.178;2023-07-08T12:55:10;5.30;;;1.60;;
62796;SDS011;48839;48.546;-4.178;2023-07-08T12:57:37;5.05;;;1.20;;
62796;SDS011;48839;48.546;-4.178;2023-07-08T13:00:03;7.35;;;1.30;;
62796;SDS011;48839;48.546;-4.178;2023-07-08T13:02:30;6.07;;;1.15;;
62796;SDS011;48839;48.546;-4.178;2023-07-08T13:05:00;4.60;;;1.15;;
62796;SDS011;48839;48.546;-4.178;2023-07-08T13:08:01;5.50;;;1.38;;
62796;SDS011;48839;48.546;-4.178;2023-07-08T13:10:21;4.68;;;0.90;;
62796;SDS011;48839;48.546;-4.178;2023-07-08T13:12:50;4.95;;;1.40;;
62796;SDS011;48839;48.546;-4.178;2023-07-08T13:15:24;5.95;;;2.15;;
62796;SDS011;48839;48.546;-4.178;2023-07-08T13:17:51;4.78;;;1.17;;
62796;SDS011;48839;48.546;-4.178;2023-07-08T13:20:17;7.07;;;1.50;;
62796;SDS011;48839;48.546;-4.178;2023-07-08T13:22:46;2.75;;;1.55;;
62796;SDS011;48839;48.546;-4.178;2023-07-08T13:25:14;8.02;;;1.73;;
62796;SDS011;48839;48.546;-4.178;2023-07-08T13:27:41;7.60;;;1.42;;
62796;SDS011;48839;48.546;-4.178;2023-07-08T13:30:15;4.72;;;1.23;;
62796;SDS011;48839;48.546;-4.178;2023-07-08T13:32:42;9.02;;;1.50;;
62796;SDS011;48839;48.546;-4.178;2023-07-08T13:35:21;6.90;;;1.92;;
62796;SDS011;48839;48.546;-4.178;2023-07-08T13:37:47;6.72;;;1.77;;
62796;SDS011;48839;48.546;-4.178;2023-07-08T13:40:15;5.10;;;1.20;;
62796;SDS011;48839;48.546;-4.178;2023-07-08T13:42:48;8.77;;;1.40;;
62796;SDS011;48839;48.546;-4.178;2023-07-08T13:47:40;8.18;;;1.30;;
62796;SDS011;48839;48.546;-4.178;2023-07-08T13:50:17;4.57;;;1.10;;
62796;SDS011;48839;48.546;-4.178;2023-07-08T13:52:44;5.30;;;1.08;;
62796;SDS011;48839;48.546;-4.178;2023-07-08T13:55:16;7.82;;;1.50;;
62796;SDS011;48839;48.546;-4.178;2023-07-08T13:57:42;5.70;;;1.17;;
62796;SDS011;48839;48.546;-4.178;2023-07-08T14:00:08;7.50;;;1.38;;
62796;SDS011;48839;48.546;-4.178;2023-07-08T14:02:34;6.57;;;1.55;;
62796;SDS011;48839;48.546;-4.178;2023-07-08T14:05:01;8.18;;;1.17;;
62796;SDS011;48839;48.546;-4.178;2023-07-08T14:07:30;3.42;;;1.00;;
62796;SDS011;48839;48.546;-4.178;2023-07-08T14:09:57;7.82;;;2.33;;
62796;SDS011;48839;48.546;-4.178;2023-07-08T14:12:23;6.43;;;2.58;;
62796;SDS011;48839;48.546;-4.178;2023-07-08T14:14:49;7.40;;;2.10;;
62796;SDS011;48839;48.546;-4.178;2023-07-08T14:17:25;8.77;;;1.80;;
62796;SDS011;48839;48.546;-4.178;2023-07-08T14:19:52;12.27;;;5.40;;
62796;SDS011;48839;48.546;-4.178;2023-07-08T14:22:28;15.10;;;7.72;;
62796;SDS011;48839;48.546;-4.178;2023-07-08T14:24:55;9.70;;;2.10;;
62796;SDS011;48839;48.546;-4.178;2023-07-08T14:27:22;8.20;;;1.48;;
62796;SDS011;48839;48.546;-4.178;2023-07-08T14:29:48;7.93;;;1.33;;
62796;SDS011;48839;48.546;-4.178;2023-07-08T14:32:21;6.55;;;1.80;;
62796;SDS011;48839;48.546;-4.178;2023-07-08T14:34:49;6.63;;;1.40;;
62796;SDS011;48839;48.546;-4.178;2023-07-08T14:37:15;5.13;;;1.30;;
62796;SDS011;48839;48.546;-4.178;2023-07-08T14:39:42;6.88;;;1.48;;
62796;SDS011;48839;48.546;-4.178;2023-07-08T14:42:10;3.40;;;1.10;;
62796;SDS011;48839;48.546;-4.178;2023-07-08T14:44:37;4.18;;;1.13;;
62796;SDS011;48839;48.546;-4.178;2023-07-08T14:47:05;6.70;;;1.40;;
62796;SDS011;48839;48.546;-4.178;2023-07-08T14:49:34;7.88;;;1.20;;
62796;SDS011;48839;48.546;-4.178;2023-07-08T14:52:00;4.53;;;1.35;;
62796;SDS011;48839;48.546;-4.178;2023-07-08T14:54:26;9.68;;;1.27;;
62796;SDS011;48839;48.546;-4.178;2023-07-08T14:56:52;4.35;;;1.42;;
62796;SDS011;48839;48.546;-4.178;2023-07-08T14:59:19;6.05;;;1.35;;
62796;SDS011;48839;48.546;-4.178;2023-07-08T15:01:46;5.85;;;1.42;;
62796;SDS011;48839;48.546;-4.178;2023-07-08T15:04:14;3.22;;;1.05;;
62796;SDS011;48839;48.546;-4.178;2023-07-08T15:06:41;3.30;;;0.95;;
62796;SDS011;48839;48.546;-4.178;2023-07-08T15:09:07;4.30;;;0.95;;
62796;SDS011;48839;48.546;-4.178;2023-07-08T15:11:34;6.70;;;1.60;;
62796;SDS011;48839;48.546;-4.178;2023-07-08T15:14:01;3.75;;;1.05;;
62796;SDS011;48839;48.546;-4.178;2023-07-08T15:16:28;3.55;;;1.20;;
62796;SDS011;48839;48.546;-4.178;2023-07-08T15:18:54;3.85;;;0.98;;
62796;SDS011;48839;48.546;-4.178;2023-07-08T15:21:20;3.60;;;0.98;;
62796;SDS011;48839;48.546;-4.178;2023-07-08T15:23:46;6.07;;;1.25;;
62796;SDS011;48839;48.546;-4.178;2023-07-08T15:26:12;5.93;;;1.45;;
62796;SDS011;48839;48.546;-4.178;2023-07-08T15:28:46;5.80;;;1.80;;
62796;SDS011;48839;48.546;-4.178;2023-07-08T15:31:17;6.05;;;1.05;;
62796;SDS011;48839;48.546;-4.178;2023-07-08T15:33:44;5.00;;;0.88;;
62796;SDS011;48839;48.546;-4.178;2023-07-08T15:36:10;6.60;;;1.30;;
62796;SDS011;48839;48.546;-4.178;2023-07-08T15:38:37;6.32;;;1.10;;
62796;SDS011;48839;48.546;-4.178;2023-07-08T15:41:03;5.85;;;1.45;;